Time;durP1;ratioP1;P1;durP2;ratioP2;P2;SDS_P1;SDS_P2;PMS_P1;PMS_P2;Temp;Humidity;BMP_temperature;BMP_pressure;BME280_temperature;BME280_humidity;BME280_pressure;Samples;Min_cycle;Max_cycle;Signal;HPM_P1;HPM_P2
2022/11/21 00:00:33;;;;;;;15.57;7.25;;;1.70;99.90;;;;;;5038588;28;20476;-83
2022/11/21 00:03:00;;;;;;;14.27;6.63;;;3.00;99.90;;;;;;5038560;28;20041;-83
2022/11/21 00:05:31;;;;;;;15.98;7.60;;;1.20;99.90;;;;;;5040425;28;20481;-83
2022/11/21 00:07:57;;;;;;;19.70;7.70;;;2.60;99.90;;;;;;5035084;28;20064;-85
2022/11/21 00:10:25;;;;;;;15.10;7.83;;;1.20;99.90;;;;;;5051308;28;20045;-85
2022/11/21 00:12:57;;;;;;;14.93;7.63;;;2.50;99.90;;;;;;5067306;28;20123;-85
2022/11/21 00:15:24;;;;;;;15.67;7.40;;;1.20;99.90;;;;;;5059260;28;20041;-85
2022/11/21 00:17:50;;;;;;;12.10;6.53;;;2.50;99.90;;;;;;5037645;28;20128;-85
2022/11/21 00:20:17;;;;;;;14.43;6.93;;;1.20;99.90;;;;;;5071345;28;20071;-85
2022/11/21 00:22:43;;;;;;;15.82;6.47;;;1.20;99.90;;;;;;5083638;28;20128;-85
2022/11/21 00:25:10;;;;;;;13.07;6.40;;;0.00;99.90;;;;;;5074268;28;20080;-85
2022/11/21 00:27:35;;;;;;;13.63;6.50;;;1.20;99.90;;;;;;5054110;28;20090;-85
2022/11/21 00:30:01;;;;;;;16.73;8.10;;;2.30;99.90;;;;;;5041807;28;20075;-85
2022/11/21 00:32:27;;;;;;;12.23;7.00;;;1.80;99.90;;;;;;5091407;28;20110;-85
2022/11/21 00:34:53;;;;;;;17.50;7.80;;;;;;;;;;5073958;28;20036;-85
2022/11/21 00:37:18;;;;;;;12.75;6.80;;;1.20;99.90;;;;;;5057854;28;20091;-85
2022/11/21 00:39:44;;;;;;;14.37;7.70;;;1.10;99.90;;;;;;5057593;28;20075;-83
2022/11/21 00:42:10;;;;;;;17.47;7.63;;;2.80;99.90;;;;;;5073892;28;20033;-83
2022/11/21 00:44:36;;;;;;;15.07;6.90;;;2.50;99.90;;;;;;5057996;28;20052;-83
2022/11/21 00:47:01;;;;;;;15.70;7.60;;;1.20;99.90;;;;;;5040897;28;20052;-83
2022/11/21 00:49:27;;;;;;;14.90;7.13;;;2.10;99.90;;;;;;5075281;28;20044;-83
2022/11/21 00:51:53;;;;;;;13.07;6.87;;;1.80;99.90;;;;;;5045557;28;20045;-83
2022/11/21 00:54:18;;;;;;;15.27;8.03;;;1.10;99.90;;;;;;5020756;28;20076;-83
2022/11/21 00:56:44;;;;;;;13.13;6.87;;;0.20;99.90;;;;;;5037005;28;20048;-85
2022/11/21 00:59:10;;;;;;;13.80;6.60;;;2.30;99.90;;;;;;5037282;28;20033;-85
2022/11/21 01:01:35;;;;;;;12.00;7.32;;;1.00;99.90;;;;;;5054355;28;20424;-85
2022/11/21 01:04:01;;;;;;;15.55;6.88;;;1.70;99.90;;;;;;5090535;28;20052;-85
2022/11/21 01:06:27;;;;;;;13.90;7.53;;;1.00;99.90;;;;;;5073487;28;20052;-85
2022/11/21 01:08:53;;;;;;;15.17;8.07;;;;;;;;;;5090449;28;20076;-85
2022/11/21 01:11:20;;;;;;;15.67;7.60;;;1.00;99.90;;;;;;5061354;28;20127;-85
2022/11/21 01:13:47;;;;;;;13.30;6.63;;;1.90;99.90;;;;;;5036663;28;20076;-83
2022/11/21 01:16:19;;;;;;;16.43;6.80;;;1.70;99.90;;;;;;5053365;28;20079;-83
2022/11/21 01:18:45;;;;;;;14.23;6.40;;;0.70;99.90;;;;;;5052972;28;20094;-83
2022/11/21 01:21:17;;;;;;;12.23;7.47;;;2.90;99.90;;;;;;5069895;28;20045;-83
2022/11/21 01:23:43;;;;;;;14.25;7.25;;;1.00;99.90;;;;;;5053142;28;20119;-82
2022/11/21 01:26:11;;;;;;;13.33;6.77;;;1.00;99.90;;;;;;5069647;28;20055;-83
2022/11/21 01:28:37;;;;;;;16.23;7.27;;;1.00;99.90;;;;;;5086345;28;20048;-83
2022/11/21 01:31:09;;;;;;;16.03;7.10;;;0.90;99.90;;;;;;5055259;28;20037;-83
2022/11/21 01:33:35;;;;;;;14.00;7.67;;;0.90;99.90;;;;;;5056937;28;20097;-83
2022/11/21 01:36:14;;;;;;;16.47;7.80;;;0.80;99.90;;;;;;5107757;28;20148;-83
2022/11/21 01:38:42;;;;;;;14.33;7.20;;;2.40;99.90;;;;;;5056982;28;20036;-83
2022/11/21 01:41:09;;;;;;;15.77;7.90;;;1.10;99.90;;;;;;5073723;28;20065;-83
2022/11/21 01:43:35;;;;;;;17.20;8.07;;;0.60;99.90;;;;;;5069179;28;20040;-83
2022/11/21 01:46:10;;;;;;;15.67;7.63;;;0.50;99.90;;;;;;5037621;28;20041;-84
2022/11/21 01:48:38;;;;;;;15.77;6.83;;;0.50;99.90;;;;;;5098317;28;20047;-85
2022/11/21 01:51:10;;;;;;;16.97;7.23;;;0.40;99.90;;;;;;5072342;28;20045;-85
2022/11/21 01:53:36;;;;;;;14.30;7.37;;;0.30;99.90;;;;;;5072198;28;20580;-85
2022/11/21 01:56:03;;;;;;;12.57;7.20;;;0.70;99.90;;;;;;5072531;28;20040;-85
2022/11/21 01:58:32;;;;;;;13.07;7.77;;;0.20;99.90;;;;;;5079720;28;20033;-85
2022/11/21 02:00:58;;;;;;;15.63;7.20;;;0.10;99.90;;;;;;5085916;28;20040;-85
2022/11/21 02:03:28;;;;;;;15.40;7.40;;;0.10;99.90;;;;;;5094087;28;20052;-83
2022/11/21 02:05:54;;;;;;;17.17;8.47;;;0.10;99.90;;;;;;5088461;28;20422;-82
2022/11/21 02:08:22;;;;;;;19.70;9.13;;;0.10;99.90;;;;;;5047517;28;20038;-82
2022/11/21 02:11:23;;;;;;;17.80;7.60;;;0.40;99.90;;;;;;5047314;28;20112;-83
2022/11/21 02:13:49;;;;;;;13.73;8.07;;;0.00;99.90;;;;;;5043909;28;20050;-83
2022/11/21 02:16:14;;;;;;;14.35;7.05;;;0.60;99.90;;;;;;5055138;28;20127;-82
2022/11/21 02:18:40;;;;;;;14.73;7.87;;;-0.10;99.90;;;;;;5041410;28;20032;-82
2022/11/21 02:21:14;;;;;;;16.37;8.13;;;-0.20;99.90;;;;;;5064696;28;20044;-82
2022/11/21 02:24:00;;;;;;;16.55;8.63;;;-0.30;99.90;;;;;;5051756;28;20044;-82
2022/11/21 02:26:26;;;;;;;16.90;7.60;;;-0.40;99.90;;;;;;5055770;28;20143;-82
2022/11/21 02:28:53;;;;;;;14.03;7.27;;;-0.40;99.90;;;;;;5063771;28;20091;-82
2022/11/21 02:31:18;;;;;;;16.40;7.83;;;-0.40;99.90;;;;;;5072249;28;20435;-83
2022/11/21 02:33:44;;;;;;;17.63;8.23;;;-0.30;99.90;;;;;;5054976;28;20041;-83
2022/11/21 02:36:34;;;;;;;18.60;7.43;;;-0.50;99.90;;;;;;5054794;28;20040;-85
2022/11/21 02:39:00;;;;;;;16.07;6.90;;;-0.50;99.90;;;;;;5071947;28;20041;-85
2022/11/21 02:41:28;;;;;;;14.40;7.33;;;-0.50;99.90;;;;;;5071798;28;20044;-85
2022/11/21 02:44:20;;;;;;;15.30;7.43;;;-0.60;99.90;;;;;;5060252;28;20492;-85
2022/11/21 02:46:49;;;;;;;14.97;7.50;;;-0.60;99.90;;;;;;5035266;28;20041;-85
2022/11/21 02:49:19;;;;;;;16.17;7.63;;;-0.60;99.90;;;;;;5035344;28;20077;-85
2022/11/21 02:51:45;;;;;;;19.87;7.73;;;-0.70;99.90;;;;;;5050477;28;20049;-85
2022/11/21 02:54:11;;;;;;;22.33;9.27;;;-0.80;99.90;;;;;;5052067;28;20126;-85
2022/11/21 02:56:37;;;;;;;15.60;7.63;;;-0.80;99.90;;;;;;5035956;28;20052;-85
2022/11/21 02:59:02;;;;;;;13.80;7.63;;;-0.90;99.90;;;;;;5052436;28;20052;-85
2022/11/21 03:01:28;;;;;;;12.93;6.33;;;-0.90;99.90;;;;;;5064189;28;20433;-85
2022/11/21 03:03:53;;;;;;;13.20;7.03;;;-1.00;99.90;;;;;;5086238;28;20071;-85
2022/11/21 03:06:19;;;;;;;14.57;7.20;;;-1.10;99.90;;;;;;5018981;28;20049;-85
2022/11/21 03:08:45;;;;;;;17.83;8.90;;;-1.20;99.90;;;;;;5035377;28;20136;-85
2022/11/21 03:11:13;;;;;;;13.00;7.30;;;0.30;99.90;;;;;;5054702;28;20392;-83
2022/11/21 03:13:39;;;;;;;19.30;8.07;;;-1.30;99.90;;;;;;5045415;28;20072;-83
2022/11/21 03:16:04;;;;;;;12.87;6.83;;;-1.30;99.90;;;;;;5039010;28;20500;-83
2022/11/21 03:18:30;;;;;;;16.37;6.90;;;-1.40;99.90;;;;;;5055931;28;20392;-83
2022/11/21 03:20:57;;;;;;;15.20;7.40;;;-1.40;99.90;;;;;;5055406;28;20073;-82
2022/11/21 03:23:22;;;;;;;14.83;7.27;;;-1.50;99.90;;;;;;5072020;28;20516;-83
2022/11/21 03:25:48;;;;;;;14.43;7.10;;;-1.60;99.90;;;;;;5088940;28;20072;-82
2022/11/21 03:28:14;;;;;;;14.97;7.50;;;-1.60;99.90;;;;;;5056109;28;20094;-83
2022/11/21 03:30:39;;;;;;;15.63;7.30;;;-1.70;99.90;;;;;;5023533;28;20044;-83
2022/11/21 03:33:05;;;;;;;15.23;6.97;;;-1.80;99.90;;;;;;5056831;28;20052;-83
2022/11/21 03:35:31;;;;;;;15.03;6.30;;;-2.00;99.90;;;;;;5057041;28;20542;-83
2022/11/21 03:37:56;;;;;;;16.70;7.70;;;-1.80;99.90;;;;;;5065720;28;20146;-83
2022/11/21 03:40:22;;;;;;;12.60;6.77;;;-1.40;99.90;;;;;;5039734;28;20095;-83
2022/11/21 03:42:48;;;;;;;15.73;6.87;;;-1.90;99.90;;;;;;5064139;28;20041;-83
2022/11/21 03:45:14;;;;;;;15.13;6.67;;;-1.90;99.90;;;;;;5058290;28;20548;-82
2022/11/21 03:47:40;;;;;;;14.43;6.93;;;-1.60;99.90;;;;;;5042401;28;20041;-82
2022/11/21 03:50:06;;;;;;;19.57;9.03;;;-1.90;99.90;;;;;;5055025;28;20412;-82
2022/11/21 03:52:32;;;;;;;17.57;8.77;;;-1.80;99.90;;;;;;5038291;28;20048;-82
2022/11/21 03:54:58;;;;;;;19.60;8.83;;;-1.70;99.90;;;;;;5049722;28;20047;-82
2022/11/21 03:57:24;;;;;;;17.30;8.17;;;-0.40;99.90;;;;;;5074944;28;20050;-82
2022/11/21 03:59:49;;;;;;;17.90;7.87;;;-1.60;99.90;;;;;;5075039;28;20037;-83
2022/11/21 04:02:15;;;;;;;13.27;6.87;;;-1.50;99.90;;;;;;5074965;28;20045;-83
2022/11/21 04:04:41;;;;;;;13.40;6.17;;;-1.50;99.90;;;;;;5074704;28;20064;-84
2022/11/21 04:07:06;;;;;;;13.87;7.07;;;-1.50;99.90;;;;;;5038411;28;20110;-83
2022/11/21 04:09:32;;;;;;;15.47;6.37;;;-1.50;99.90;;;;;;5054358;28;20087;-84
2022/11/21 04:11:58;;;;;;;13.97;7.23;;;-1.50;99.90;;;;;;5055009;28;20397;-84
2022/11/21 04:14:23;;;;;;;14.60;6.77;;;-1.50;99.90;;;;;;5021766;28;20126;-84
2022/11/21 04:16:49;;;;;;;14.83;7.20;;;-1.60;99.90;;;;;;5038602;28;20653;-83
2022/11/21 04:19:15;;;;;;;17.23;9.07;;;-1.70;99.90;;;;;;5055480;28;20397;-83
2022/11/21 04:21:41;;;;;;;17.73;7.50;;;-1.60;99.90;;;;;;5055118;28;20454;-83
2022/11/21 04:24:07;;;;;;;14.70;7.17;;;-1.60;99.90;;;;;;5056240;28;20544;-82
2022/11/21 04:26:32;;;;;;;15.60;7.23;;;-1.70;99.90;;;;;;5055972;28;20040;-82
2022/11/21 04:28:58;;;;;;;14.53;8.30;;;-1.70;99.90;;;;;;5038969;28;20123;-83
2022/11/21 04:31:24;;;;;;;17.70;7.87;;;-1.80;99.90;;;;;;5022929;28;20043;-83
2022/11/21 04:33:49;;;;;;;20.30;8.23;;;-0.80;99.90;;;;;;5024141;28;20509;-85
2022/11/21 04:36:15;;;;;;;20.20;8.97;;;-1.20;99.90;;;;;;5037150;28;20060;-85
2022/11/21 04:38:41;;;;;;;18.23;8.87;;;-1.90;99.90;;;;;;5087956;28;20033;-85
2022/11/21 04:41:06;;;;;;;19.00;7.63;;;-0.50;99.90;;;;;;5087636;28;20045;-85
2022/11/21 04:43:32;;;;;;;16.13;7.80;;;-1.90;99.90;;;;;;5054488;28;20117;-85
2022/11/21 04:45:58;;;;;;;15.63;6.93;;;-0.80;99.90;;;;;;5037494;28;20037;-85
2022/11/21 04:48:23;;;;;;;15.20;7.70;;;-2.00;99.90;;;;;;5074661;28;20417;-85
2022/11/21 04:50:49;;;;;;;19.23;8.27;;;0.00;99.90;;;;;;5070317;28;20084;-83
2022/11/21 04:53:15;;;;;;;13.33;6.80;;;-2.20;99.90;;;;;;5070448;28;20037;-82
2022/11/21 04:55:40;;;;;;;13.20;6.50;;;-1.80;99.90;;;;;;5070184;28;20076;-82
2022/11/21 04:58:06;;;;;;;14.13;6.73;;;-1.70;99.90;;;;;;5037267;28;20523;-82
2022/11/21 05:00:32;;;;;;;14.53;6.47;;;-1.70;99.90;;;;;;5037443;28;20079;-82
2022/11/21 05:03:05;;;;;;;12.20;5.87;;;-1.80;99.90;;;;;;5053416;28;20045;-83
2022/11/21 05:05:31;;;;;;;13.33;6.27;;;-1.80;99.90;;;;;;5053457;28;20049;-82
2022/11/21 05:07:57;;;;;;;14.03;6.30;;;-0.30;99.90;;;;;;5020250;28;20041;-84
2022/11/21 05:10:23;;;;;;;11.37;5.80;;;-2.20;99.90;;;;;;5036616;28;20051;-84
2022/11/21 05:15:43;;;;;;;13.40;6.73;;;-2.30;99.90;;;;;;5053144;28;20045;-84
2022/11/21 05:18:09;;;;;;;11.97;5.77;;;-0.80;99.90;;;;;;5053593;28;20041;-84
2022/11/21 05:20:35;;;;;;;16.27;6.77;;;-0.90;99.90;;;;;;5037197;28;20055;-84
2022/11/21 05:23:00;;;;;;;15.87;7.67;;;-2.40;99.90;;;;;;5036862;28;20044;-84
2022/11/21 05:25:26;;;;;;;14.70;7.07;;;-2.40;99.90;;;;;;5053324;28;20037;-85
2022/11/21 05:27:55;;;;;;;13.97;6.20;;;-2.40;99.90;;;;;;5036708;28;20041;-84
2022/11/21 05:30:21;;;;;;;13.20;6.17;;;-2.40;99.90;;;;;;5053130;28;20037;-84
2022/11/21 05:32:47;;;;;;;15.27;6.70;;;-2.40;99.90;;;;;;5036504;28;20049;-84
2022/11/21 05:35:12;;;;;;;17.17;7.20;;;-1.80;99.90;;;;;;5053237;28;20036;-84
2022/11/21 05:37:38;;;;;;;20.97;8.87;;;-2.40;99.90;;;;;;5053292;28;20044;-84
2022/11/21 05:40:04;;;;;;;16.83;7.70;;;-2.40;99.90;;;;;;5052705;28;20076;-82
2022/11/21 05:45:14;;;;;;;20.53;9.43;;;-0.60;99.90;;;;;;5038514;28;20488;-82
2022/11/21 05:47:43;;;;;;;23.70;9.13;;;-2.10;99.90;;;;;;5036307;28;20128;-81
2022/11/21 05:50:08;;;;;;;18.13;8.90;;;-2.10;99.90;;;;;;5053439;28;20532;-82
2022/11/21 05:52:34;;;;;;;23.07;9.73;;;-0.80;99.90;;;;;;5052662;28;20068;-82
2022/11/21 05:55:00;;;;;;;23.83;8.70;;;-1.90;99.90;;;;;;5052721;28;20041;-82
2022/11/21 05:57:25;;;;;;;19.60;10.20;;;-1.90;99.90;;;;;;5035485;28;20090;-84
2022/11/21 05:59:51;;;;;;;23.33;10.40;;;0.20;99.90;;;;;;5053247;28;20047;-84
2022/11/21 06:05:01;;;;;;;20.93;9.20;;;-1.80;99.90;;;;;;5038329;28;20063;-84
2022/11/21 06:07:27;;;;;;;21.53;8.77;;;-1.90;99.90;;;;;;5052779;28;20057;-85
2022/11/21 06:09:52;;;;;;;21.57;8.77;;;-1.90;99.90;;;;;;5052855;28;20041;-86
2022/11/21 06:12:18;;;;;;;20.53;9.77;;;-0.20;99.90;;;;;;5052402;28;20045;-85
2022/11/21 06:14:44;;;;;;;20.97;10.33;;;-1.90;99.90;;;;;;5036245;28;20040;-82
2022/11/21 06:17:10;;;;;;;25.03;10.13;;;-1.80;99.90;;;;;;5035956;28;20091;-82
2022/11/21 06:19:36;;;;;;;22.73;10.70;;;-1.80;99.90;;;;;;5019498;28;20060;-82
2022/11/21 06:22:02;;;;;;;20.23;9.10;;;-1.70;99.90;;;;;;5053663;28;20045;-82
2022/11/21 06:24:28;;;;;;;17.57;8.60;;;-0.50;99.90;;;;;;5053708;28;20161;-82
2022/11/21 06:26:53;;;;;;;21.17;8.93;;;-1.70;99.90;;;;;;5052536;28;20103;-82
2022/11/21 06:29:21;;;;;;;24.37;10.10;;;-1.70;99.90;;;;;;5016003;28;20490;-82
2022/11/21 06:31:46;;;;;;;18.87;8.83;;;-1.70;99.90;;;;;;5037251;28;20076;-85
2022/11/21 06:34:12;;;;;;;19.27;8.77;;;-1.80;99.90;;;;;;5035905;28;20079;-85
2022/11/21 06:36:38;;;;;;;17.83;8.53;;;-1.10;99.90;;;;;;5052641;28;20044;-85
2022/11/21 06:39:03;;;;;;;19.17;8.70;;;-1.80;99.90;;;;;;5035964;28;20041;-85
2022/11/21 06:41:30;;;;;;;21.87;9.07;;;-1.80;99.90;;;;;;5019409;28;20037;-85
2022/11/21 06:44:00;;;;;;;22.30;9.63;;;-1.80;99.90;;;;;;5036077;28;20055;-85
2022/11/21 06:46:26;;;;;;;22.20;9.23;;;-1.80;99.90;;;;;;5057270;28;20504;-84
2022/11/21 06:48:52;;;;;;;19.53;9.43;;;0.10;99.90;;;;;;5042296;28;20040;-84
2022/11/21 06:51:21;;;;;;;19.97;8.50;;;-1.70;99.90;;;;;;5056262;28;20037;-84
2022/11/21 06:53:55;;;;;;;18.17;7.83;;;-1.80;99.90;;;;;;5057096;28;20041;-84
2022/11/21 06:56:22;;;;;;;14.67;7.33;;;-1.80;99.90;;;;;;5057348;28;20053;-84
2022/11/21 06:58:48;;;;;;;18.57;8.17;;;-1.90;99.90;;;;;;5057559;28;20059;-84
2022/11/21 07:01:14;;;;;;;17.67;8.53;;;-1.90;99.90;;;;;;5057662;28;20493;-84
2022/11/21 07:03:40;;;;;;;18.83;8.27;;;0.10;99.90;;;;;;5046431;28;20079;-83
2022/11/21 07:06:06;;;;;;;17.57;8.73;;;-1.90;99.90;;;;;;5049398;28;20080;-84
2022/11/21 07:08:37;;;;;;;23.00;9.37;;;-1.90;99.90;;;;;;5063363;28;20119;-84
2022/11/21 07:11:05;;;;;;;21.90;9.30;;;-1.20;99.90;;;;;;5059915;28;20123;-85
2022/11/21 07:13:31;;;;;;;19.60;8.83;;;-1.80;99.90;;;;;;5094299;28;20038;-85
2022/11/21 07:16:06;;;;;;;19.83;9.47;;;-1.70;99.90;;;;;;5060974;28;20136;-84
2022/11/21 07:18:32;;;;;;;17.90;8.33;;;-1.70;99.90;;;;;;5058464;28;20571;-84
2022/11/21 07:21:03;;;;;;;21.97;9.47;;;-1.70;99.90;;;;;;5048669;28;20479;-85
2022/11/21 07:23:30;;;;;;;18.37;8.77;;;-1.50;99.90;;;;;;5064395;28;20162;-85
2022/11/21 07:26:00;;;;;;;21.27;8.93;;;0.20;99.90;;;;;;5076307;28;20055;-85
2022/11/21 07:28:29;;;;;;;21.07;9.07;;;-1.60;99.90;;;;;;5095977;28;20048;-85
2022/11/21 07:30:56;;;;;;;19.23;8.57;;;-1.60;99.90;;;;;;5089274;28;20041;-85
2022/11/21 07:33:22;;;;;;;19.10;8.10;;;-1.60;99.90;;;;;;5058606;28;20047;-86
2022/11/21 07:35:47;;;;;;;19.93;8.90;;;-1.50;99.90;;;;;;5057804;28;20563;-86
2022/11/21 07:38:13;;;;;;;16.83;7.47;;;-1.50;99.90;;;;;;5042054;28;20041;-84
2022/11/21 07:40:39;;;;;;;20.70;9.17;;;0.10;99.90;;;;;;5041746;28;20036;-84
2022/11/21 07:43:05;;;;;;;20.57;9.47;;;0.40;99.90;;;;;;5041879;28;20036;-84
2022/11/21 07:45:32;;;;;;;16.87;8.27;;;-0.60;99.90;;;;;;5041794;28;20094;-84
2022/11/21 07:47:59;;;;;;;20.00;9.00;;;-0.20;99.90;;;;;;5058363;28;20041;-84
2022/11/21 07:50:25;;;;;;;19.57;9.17;;;-0.30;99.90;;;;;;5058383;28;20503;-84
2022/11/21 07:52:50;;;;;;;20.63;9.67;;;0.20;99.90;;;;;;5057755;28;20054;-84
2022/11/21 07:55:16;;;;;;;23.37;10.07;;;0.50;99.90;;;;;;5058041;28;20149;-84
2022/11/21 07:57:42;;;;;;;21.30;10.53;;;0.70;99.90;;;;;;5065603;28;20480;-84
2022/11/21 08:00:08;;;;;;;22.43;10.37;;;-0.90;99.90;;;;;;5058157;28;20043;-84
2022/11/21 08:02:34;;;;;;;19.77;9.43;;;0.90;99.90;;;;;;5057841;28;20051;-85
2022/11/21 08:05:00;;;;;;;19.23;9.23;;;1.10;99.90;;;;;;5024464;28;20052;-84
2022/11/21 08:07:25;;;;;;;24.40;10.67;;;2.50;99.90;;;;;;5041578;28;20500;-85
2022/11/21 08:09:51;;;;;;;17.07;9.20;;;1.60;99.90;;;;;;5024573;28;20432;-84
2022/11/21 08:12:17;;;;;;;18.77;9.00;;;1.80;99.90;;;;;;5057732;28;20040;-86
2022/11/21 08:14:42;;;;;;;21.13;8.90;;;1.80;99.90;;;;;;5048070;28;20078;-84
2022/11/21 08:17:08;;;;;;;16.87;8.67;;;1.80;99.90;;;;;;5057498;28;20373;-84
2022/11/21 08:19:34;;;;;;;22.10;8.80;;;2.20;99.90;;;;;;5057683;28;20376;-84
2022/11/21 08:22:00;;;;;;;20.80;9.52;;;2.80;99.90;;;;;;5056903;28;20072;-84
2022/11/21 08:24:26;;;;;;;18.20;8.67;;;1.30;99.90;;;;;;5056774;28;20131;-82
2022/11/21 08:26:52;;;;;;;15.90;7.97;;;1.10;99.90;;;;;;5020324;28;20559;-82
2022/11/21 08:29:18;;;;;;;16.23;8.47;;;2.70;99.90;;;;;;5070500;28;20051;-82
2022/11/21 08:31:44;;;;;;;23.43;10.00;;;0.80;99.90;;;;;;5020658;28;20040;-82
2022/11/21 08:34:11;;;;;;;20.00;9.40;;;0.80;99.90;;;;;;5020798;28;20036;-82
2022/11/21 08:36:36;;;;;;;18.97;8.73;;;0.70;99.90;;;;;;5037140;28;20083;-82
2022/11/21 08:39:03;;;;;;;17.50;7.73;;;0.60;99.90;;;;;;5037551;28;20068;-82
2022/11/21 08:44:13;;;;;;;20.50;10.10;;;0.60;99.90;;;;;;5039693;28;20045;-82
2022/11/21 08:46:39;;;;;;;18.67;9.10;;;0.60;99.90;;;;;;5051080;28;20609;-82
2022/11/21 08:49:08;;;;;;;20.37;9.33;;;0.60;99.90;;;;;;5048194;28;20072;-83
2022/11/21 08:51:35;;;;;;;19.97;9.40;;;0.60;99.90;;;;;;5073676;28;20044;-83
2022/11/21 08:54:01;;;;;;;19.67;9.07;;;0.60;99.90;;;;;;5037824;28;20119;-83
2022/11/21 08:56:27;;;;;;;18.40;9.00;;;2.30;99.90;;;;;;5058937;28;20028;-83
2022/11/21 08:58:53;;;;;;;20.27;9.43;;;0.60;99.90;;;;;;5073313;28;20047;-83
2022/11/21 09:01:19;;;;;;;16.10;7.87;;;0.60;99.90;;;;;;5090153;28;20040;-83
2022/11/21 09:03:45;;;;;;;20.17;9.93;;;0.60;99.90;;;;;;5056267;28;20076;-83
2022/11/21 09:06:12;;;;;;;23.13;10.77;;;0.60;99.90;;;;;;5056505;28;20048;-83
2022/11/21 09:08:37;;;;;;;21.17;9.97;;;0.70;99.90;;;;;;5056332;28;20047;-83
2022/11/21 09:11:08;;;;;;;19.27;9.13;;;0.60;99.90;;;;;;5056339;28;20123;-83
2022/11/21 09:13:35;;;;;;;20.13;9.93;;;1.50;99.90;;;;;;5039259;28;20033;-83
2022/11/21 09:18:45;;;;;;;20.70;8.63;;;0.90;99.90;;;;;;5051689;28;20480;-82
2022/11/21 09:21:15;;;;;;;18.17;8.83;;;0.60;99.90;;;;;;5023590;28;20094;-82
2022/11/21 09:23:41;;;;;;;20.97;10.53;;;;;;;;;;5023535;28;20125;-82
2022/11/21 09:26:06;;;;;;;19.37;9.70;;;0.60;99.90;;;;;;5056280;28;20116;-82
2022/11/21 09:28:34;;;;;;;22.17;9.93;;;0.70;99.90;;;;;;5050299;28;20115;-82
2022/11/21 09:31:01;;;;;;;22.93;9.93;;;0.60;99.90;;;;;;5061462;28;20032;-82
2022/11/21 09:33:27;;;;;;;16.60;7.63;;;0.60;99.90;;;;;;5022786;28;20045;-82
2022/11/21 09:35:53;;;;;;;16.33;8.50;;;0.60;99.90;;;;;;5039024;28;20063;-82
2022/11/21 09:38:18;;;;;;;20.10;8.73;;;0.60;99.90;;;;;;5055575;28;20033;-82
2022/11/21 09:40:47;;;;;;;20.37;9.27;;;1.70;99.90;;;;;;5041312;28;20052;-82
2022/11/21 09:43:28;;;;;;;17.67;9.53;;;0.70;99.90;;;;;;5039043;28;20044;-82
2022/11/21 09:46:16;;;;;;;15.60;8.57;;;0.70;99.90;;;;;;5045580;28;20037;-83
2022/11/21 09:48:50;;;;;;;21.20;9.73;;;0.70;99.90;;;;;;5044298;28;20044;-82
2022/11/21 09:51:18;;;;;;;17.60;9.00;;;0.80;99.90;;;;;;5048939;28;20076;-81
2022/11/21 09:54:17;;;;;;;16.73;8.60;;;0.80;99.90;;;;;;5079952;28;20139;-81
2022/11/21 09:56:43;;;;;;;15.80;8.03;;;0.90;99.90;;;;;;5016581;28;20056;-81
2022/11/21 09:59:19;;;;;;;20.93;7.87;;;1.50;99.90;;;;;;5061355;28;20040;-81
2022/11/21 10:01:44;;;;;;;17.52;8.07;;;1.10;99.90;;;;;;5055656;28;20123;-81
2022/11/21 10:04:10;;;;;;;16.23;8.23;;;-0.30;99.90;;;;;;5037476;28;20155;-80
2022/11/21 10:06:47;;;;;;;13.03;5.93;;;1.20;99.90;;;;;;5054896;28;20057;-82
2022/11/21 10:09:22;;;;;;;11.93;5.90;;;1.30;99.90;;;;;;5079005;28;20046;-83
2022/11/21 10:15:23;;;;;;;12.57;6.90;;;1.40;99.90;;;;;;5055335;28;20049;-84
2022/11/21 10:20:20;;;;;;;13.67;7.30;;;1.60;99.90;;;;;;5088388;28;20048;-80
2022/11/21 10:23:13;;;;;;;15.37;6.83;;;2.80;99.90;;;;;;5075831;28;20044;-80
2022/11/21 10:25:42;;;;;;;15.53;6.87;;;1.70;99.90;;;;;;5058459;28;20043;-80
2022/11/21 10:28:28;;;;;;;15.30;7.57;;;1.90;99.90;;;;;;5059114;28;20391;-81
2022/11/21 10:30:57;;;;;;;14.53;6.90;;;2.00;99.90;;;;;;5058713;28;20499;-80
2022/11/21 10:33:31;;;;;;;12.80;6.33;;;2.20;99.90;;;;;;5075706;28;20043;-80
2022/11/21 10:36:01;;;;;;;15.53;8.00;;;2.10;99.90;;;;;;5058690;28;20036;-80
2022/11/21 10:38:28;;;;;;;15.83;7.97;;;2.10;99.90;;;;;;5058327;28;20145;-80
2022/11/21 10:41:00;;;;;;;12.13;6.23;;;2.40;99.90;;;;;;5042340;28;20040;-81
2022/11/21 10:46:22;;;;;;;12.35;6.93;;;2.40;99.90;;;;;;5075125;28;20047;-81
2022/11/21 10:49:00;;;;;;;11.82;6.45;;;2.60;99.90;;;;;;5088992;28;20039;-81
2022/11/21 10:51:46;;;;;;;13.13;6.37;;;2.50;99.90;;;;;;5081662;28;20507;-81
2022/11/21 10:54:32;;;;;;;14.55;6.90;;;2.70;99.90;;;;;;5058691;28;20422;-81
2022/11/21 10:57:14;;;;;;;11.87;6.43;;;2.60;99.90;;;;;;5075160;28;20075;-81
2022/11/21 10:59:40;;;;;;;12.47;6.40;;;2.70;99.90;;;;;;5057540;28;20507;-80
2022/11/21 11:02:12;;;;;;;14.53;6.57;;;2.70;99.90;;;;;;5061543;28;20391;-80
2022/11/21 11:04:38;;;;;;;11.05;6.35;;;2.80;99.90;;;;;;5055006;28;20127;-80
2022/11/21 11:07:33;;;;;;;14.48;6.65;;;2.90;99.90;;;;;;5104757;28;20123;-80
2022/11/21 11:10:20;;;;;;;13.47;6.33;;;4.40;99.90;;;;;;5054257;28;20056;-80
2022/11/21 11:15:33;;;;;;;;;;;3.80;99.90;;;;;;5061327;28;20390;-81
2022/11/21 11:18:01;;;;;;;10.57;5.40;;;4.90;99.90;;;;;;5075140;28;20466;-81
2022/11/21 11:20:45;;;;;;;10.55;5.57;;;3.20;99.90;;;;;;5058362;28;20097;-81
2022/11/21 11:23:19;;;;;;;13.13;6.50;;;3.40;99.90;;;;;;5074878;28;20036;-81
2022/11/21 11:25:48;;;;;;;10.60;4.88;;;4.00;99.90;;;;;;5058024;28;20052;-81
2022/11/21 11:28:14;;;;;;;12.48;6.63;;;3.20;99.90;;;;;;5066018;28;20377;-81
2022/11/21 11:30:40;;;;;;;10.10;4.85;;;3.30;99.90;;;;;;5055602;28;20051;-80
2022/11/21 11:33:33;;;;;;;12.75;5.40;;;4.90;99.90;;;;;;5041575;28;20045;-80
2022/11/21 11:36:13;;;;;;;11.48;5.40;;;3.30;99.90;;;;;;5058184;28;20124;-80
2022/11/21 11:39:07;;;;;;;11.85;6.20;;;3.30;99.90;;;;;;5058286;28;20127;-80
2022/11/21 11:48:09;;;;;;;12.30;5.93;;;3.30;99.90;;;;;;5058396;28;20049;-81
2022/11/21 11:50:59;;;;;;;12.52;5.20;;;3.30;99.90;;;;;;5095902;28;20059;-81
2022/11/21 11:53:37;;;;;;;10.18;5.07;;;3.40;99.90;;;;;;5078451;28;20396;-81
2022/11/21 11:56:22;;;;;;;11.52;6.03;;;3.70;99.90;;;;;;5094537;28;20376;-81
2022/11/21 11:58:54;;;;;;;10.48;5.13;;;3.40;99.90;;;;;;5041760;28;20498;-81
2022/11/21 12:01:29;;;;;;;10.60;5.15;;;3.90;99.90;;;;;;5058273;28;20032;-81
2022/11/21 12:04:04;;;;;;;9.82;4.75;;;3.50;99.90;;;;;;5076233;28;20059;-81
2022/11/21 12:06:36;;;;;;;9.18;5.25;;;3.50;99.90;;;;;;5067707;28;20424;-80
2022/11/21 12:09:14;;;;;;;12.15;6.07;;;3.50;99.90;;;;;;5077452;28;20038;-80
2022/11/21 12:12:07;;;;;;;10.38;5.00;;;3.60;99.90;;;;;;5091130;28;20079;-80
2022/11/21 12:17:52;;;;;;;9.07;4.55;;;3.70;99.90;;;;;;5073899;28;20055;-80
2022/11/21 12:20:33;;;;;;;8.82;4.63;;;3.90;99.90;;;;;;5033618;28;20834;-80
2022/11/21 12:22:58;;;;;;;10.63;4.53;;;4.20;99.90;;;;;;5057352;28;20130;-81
2022/11/21 12:25:29;;;;;;;8.90;4.70;;;4.10;99.90;;;;;;5024106;28;20123;-80
2022/11/21 12:27:57;;;;;;;7.70;4.35;;;4.10;99.90;;;;;;5066198;28;20069;-80
2022/11/21 12:31:11;;;;;;;9.55;4.97;;;5.20;99.90;;;;;;5050236;28;20505;-80
2022/11/21 12:33:49;;;;;;;9.25;4.57;;;4.40;99.90;;;;;;5027749;28;20052;-81
2022/11/21 12:36:52;;;;;;;9.60;5.57;;;4.40;99.90;;;;;;5032715;28;20033;-80
2022/11/21 12:39:57;;;;;;;11.18;5.47;;;4.40;99.90;;;;;;5039486;28;20405;-80
2022/11/21 12:42:50;;;;;;;11.27;5.53;;;4.40;99.90;;;;;;5069642;28;20041;-81
2022/11/21 12:45:36;;;;;;;11.30;5.55;;;4.30;99.90;;;;;;5048245;28;20063;-81
2022/11/21 12:57:01;;;;;;;9.02;5.00;;;4.10;99.90;;;;;;5049353;28;20040;-80
2022/11/21 12:59:30;;;;;;;11.27;5.63;;;4.00;99.90;;;;;;5065644;28;20048;-80
2022/11/21 13:02:22;;;;;;;8.85;5.18;;;4.20;99.90;;;;;;5043507;28;20080;-80
2022/11/21 13:04:49;;;;;;;11.77;5.00;;;4.40;99.90;;;;;;5037853;28;20131;-80
2022/11/21 13:07:17;;;;;;;9.77;5.43;;;4.30;99.90;;;;;;5024862;28;20041;-80
2022/11/21 13:09:50;;;;;;;6.72;4.18;;;4.40;99.90;;;;;;5050134;28;20041;-80
2022/11/21 13:12:25;;;;;;;9.30;4.95;;;4.40;99.90;;;;;;5052999;28;20049;-81
2022/11/21 13:14:57;;;;;;;;;;;4.40;99.90;;;;;;5052981;28;20497;-80
2022/11/21 13:17:33;;;;;;;11.68;5.45;;;4.60;99.90;;;;;;5043991;28;19924;-81
2022/11/21 13:20:18;;;;;;;9.80;4.35;;;4.50;99.90;;;;;;5087551;28;20056;-80
2022/11/21 13:22:43;;;;;;;10.38;5.22;;;4.50;99.90;;;;;;5024972;28;20115;-81
2022/11/21 13:25:09;;;;;;;9.13;5.43;;;4.50;99.90;;;;;;5028242;28;20049;-81
2022/11/21 13:27:43;;;;;;;10.40;5.00;;;4.80;99.90;;;;;;5035303;28;20082;-80
2022/11/21 13:30:10;;;;;;;10.38;5.65;;;4.80;99.90;;;;;;5050834;28;20036;-81
2022/11/21 13:32:47;;;;;;;13.30;6.00;;;4.90;99.90;;;;;;5035022;28;20048;-80
2022/11/21 13:35:19;;;;;;;10.77;5.25;;;5.00;99.90;;;;;;5032663;28;20045;-81
2022/11/21 13:37:54;;;;;;;10.35;5.60;;;5.20;99.90;;;;;;5023481;28;20452;-80